Time;durP1;ratioP1;P1;durP2;ratioP2;P2;SDS_P1;SDS_P2;PMS_P1;PMS_P2;Temp;Humidity;BMP_temperature;BMP_pressure;BME280_temperature;BME280_humidity;BME280_pressure;Samples;Min_cycle;Max_cycle;Signal;HPM_P1;HPM_P2
2024/03/03 00:01:12;;;;;;;5.82;3.47;;;;;;;11.83;35.91;99551.63;5088483;28;20093;-78
2024/03/03 00:03:40;;;;;;;5.82;3.95;;;;;;;11.81;36.24;99546.31;5090318;28;20044;-78
2024/03/03 00:06:09;;;;;;;4.85;3.38;;;;;;;11.82;36.36;99558.16;5107704;28;20035;-78
2024/03/03 00:08:38;;;;;;;6.43;3.63;;;;;;;11.84;36.48;99554.22;5108911;27;20054;-78
2024/03/03 00:11:07;;;;;;;6.63;3.58;;;;;;;11.82;36.13;99544.44;5110946;28;20039;-78
2024/03/03 00:13:36;;;;;;;6.50;3.70;;;;;;;11.81;36.24;99549.06;5089873;28;20067;-78
2024/03/03 00:16:05;;;;;;;4.57;3.13;;;;;;;11.80;36.52;99530.91;5081838;28;20044;-78
2024/03/03 00:18:37;;;;;;;5.35;3.50;;;;;;;11.82;36.17;99528.84;5085529;28;20048;-78
2024/03/03 00:21:05;;;;;;;;;;;;;;;11.55;36.90;99537.44;5091422;28;20039;-78
2024/03/03 00:23:33;;;;;;;5.32;3.50;;;;;;;11.75;36.07;99519.63;5091700;28;19943;-78
2024/03/03 00:26:03;;;;;;;4.85;3.15;;;;;;;11.79;35.89;99520.13;5095148;28;20063;-79
2024/03/03 00:28:31;;;;;;;6.07;3.63;;;;;;;11.75;36.02;99508.66;5088928;28;20398;-79
2024/03/03 00:30:59;;;;;;;5.43;3.67;;;;;;;11.72;36.04;99514.47;5085112;28;20050;-78
2024/03/03 00:33:27;;;;;;;6.68;4.03;;;;;;;11.71;36.01;99510.06;5091264;28;20149;-79
2024/03/03 00:35:55;;;;;;;6.55;3.88;;;;;;;11.67;36.46;99519.63;5077232;28;20046;-79
2024/03/03 00:38:23;;;;;;;5.68;3.50;;;;;;;11.66;36.37;99529.75;5087356;28;20074;-79
2024/03/03 00:40:51;;;;;;;5.03;3.40;;;;;;;11.64;36.19;99506.25;5083226;28;20055;-79
2024/03/03 00:43:21;;;;;;;5.35;3.67;;;;;;;11.64;36.57;99517.22;5091489;28;20456;-79
2024/03/03 00:45:49;;;;;;;5.82;3.60;;;;;;;11.61;36.46;99512.13;5091703;28;20464;-78
2024/03/03 00:48:17;;;;;;;5.97;3.95;;;;;;;11.59;36.56;99506.78;5094484;28;20035;-78
2024/03/03 00:50:45;;;;;;;7.22;4.15;;;;;;;11.56;36.44;99504.38;5094494;28;20044;-79
2024/03/03 00:53:13;;;;;;;5.63;3.72;;;;;;;11.56;36.30;99515.31;5108112;28;20050;-78
2024/03/03 00:55:46;;;;;;;4.85;3.40;;;;;;;11.54;35.98;99520.16;5094998;28;20061;-78
2024/03/03 00:58:14;;;;;;;5.70;3.50;;;;;;;11.51;36.27;99525.97;5082560;28;20068;-79
2024/03/03 01:00:45;;;;;;;6.43;3.67;;;;;;;11.52;36.79;99507.63;5084514;28;20329;-79
2024/03/03 01:03:13;;;;;;;5.45;3.47;;;;;;;11.47;36.58;99505.41;5102172;28;20466;-78
2024/03/03 01:05:41;;;;;;;5.57;3.63;;;;;;;11.47;36.32;99518.28;5090205;28;20578;-78
2024/03/03 01:08:10;;;;;;;6.07;3.65;;;;;;;11.46;36.35;99517.41;5082224;28;20431;-78
2024/03/03 01:10:38;;;;;;;5.40;3.47;;;;;;;11.43;36.45;99514.16;5080148;28;20067;-78
2024/03/03 01:13:06;;;;;;;5.43;3.70;;;;;;;11.44;36.50;99515.88;5093567;28;20035;-79
2024/03/03 01:15:34;;;;;;;5.07;3.33;;;;;;;11.42;36.51;99507.81;5101479;28;20143;-78
2024/03/03 01:18:05;;;;;;;5.20;3.60;;;;;;;11.45;36.64;99520.31;5090371;28;20422;-78
2024/03/03 01:20:33;;;;;;;5.97;3.75;;;;;;;11.43;36.36;99516.91;5086024;28;20047;-78
2024/03/03 01:23:00;;;;;;;5.55;3.70;;;;;;;11.41;36.70;99516.19;5079534;28;20101;-79
2024/03/03 01:25:29;;;;;;;5.35;3.60;;;;;;;11.39;36.36;99499.94;5086162;28;20048;-79
2024/03/03 01:27:57;;;;;;;6.32;3.95;;;;;;;11.39;36.46;99504.59;5099139;28;20031;-79
2024/03/03 01:30:25;;;;;;;5.40;3.67;;;;;;;11.38;36.44;99497.41;5111405;28;20122;-78
2024/03/03 01:32:53;;;;;;;5.45;3.53;;;;;;;11.38;36.45;99508.34;5081620;28;20125;-78
2024/03/03 01:35:23;;;;;;;5.80;3.17;;;;;;;11.38;37.03;99506.47;5084884;28;20055;-78
2024/03/03 01:37:51;;;;;;;5.43;3.55;;;;;;;11.36;36.45;99511.25;5075886;28;20044;-78
2024/03/03 01:40:19;;;;;;;6.15;3.45;;;;;;;11.34;36.80;99491.38;5087700;28;20090;-78
2024/03/03 01:42:47;;;;;;;5.57;4.10;;;;;;;11.35;36.48;99499.44;5087644;28;20050;-77
2024/03/03 01:45:22;;;;;;;5.97;3.50;;;;;;;11.36;37.05;99503.91;5085118;28;20035;-78
2024/03/03 01:47:51;;;;;;;5.28;3.58;;;;;;;11.34;36.58;99496.88;5085228;28;20107;-77
2024/03/03 01:50:20;;;;;;;5.43;3.35;;;;;;;11.34;36.56;99494.13;5076531;28;20120;-79
2024/03/03 01:52:51;;;;;;;4.90;3.30;;;;;;;11.35;36.85;99502.19;5106140;28;20046;-78
2024/03/03 01:55:22;;;;;;;5.18;3.20;;;;;;;11.34;36.92;99500.47;5084303;28;20278;-78
2024/03/03 01:57:54;;;;;;;5.32;3.08;;;;;;;11.34;36.50;99494.97;5092613;28;20047;-78
2024/03/03 02:00:25;;;;;;;5.03;3.08;;;;;;;11.32;36.48;99493.44;5090700;28;20503;-79
2024/03/03 02:02:53;;;;;;;5.90;3.97;;;;;;;11.32;36.52;99504.41;5105245;28;20070;-78
2024/03/03 02:05:22;;;;;;;5.78;3.33;;;;;;;11.32;36.63;99505.25;5083317;28;20040;-79
2024/03/03 02:07:52;;;;;;;5.53;3.20;;;;;;;11.34;36.60;99488.66;5075289;28;20123;-78
2024/03/03 02:10:22;;;;;;;5.45;3.65;;;;;;;11.34;36.92;99491.38;5076087;28;20047;-78
2024/03/03 02:12:51;;;;;;;4.60;2.97;;;;;;;11.32;36.72;99494.28;5076752;28;20115;-78
2024/03/03 02:15:20;;;;;;;5.20;3.30;;;;;;;11.33;36.85;99497.91;5086148;28;20040;-78
2024/03/03 02:17:49;;;;;;;5.60;3.35;;;;;;;11.33;36.56;99503.38;5076648;28;20450;-79
2024/03/03 02:20:17;;;;;;;5.05;3.35;;;;;;;11.31;36.93;99489.84;5086017;28;20040;-79
2024/03/03 02:22:47;;;;;;;5.15;3.17;;;;;;;11.33;37.04;99489.69;5082384;28;20044;-79
2024/03/03 02:25:16;;;;;;;5.07;3.35;;;;;;;11.33;36.96;99497.91;5101271;28;20161;-78
2024/03/03 02:27:44;;;;;;;5.15;3.22;;;;;;;11.31;36.93;99489.84;5083757;28;20048;-78
2024/03/03 02:30:12;;;;;;;5.07;3.28;;;;;;;11.32;36.79;99505.25;5088217;28;20050;-79
2024/03/03 02:32:40;;;;;;;5.55;2.92;;;;;;;11.32;36.53;99501.66;5083500;28;20102;-79
2024/03/03 02:35:11;;;;;;;5.78;3.53;;;;;;;11.30;36.82;99501.84;5100041;28;20510;-79
2024/03/03 02:37:39;;;;;;;6.32;3.90;;;;;;;11.29;37.14;99499.28;5103255;28;20449;-78
2024/03/03 02:40:09;;;;;;;5.57;3.70;;;;;;;11.31;37.00;99498.06;5079131;28;20094;-79
2024/03/03 02:42:38;;;;;;;5.28;3.33;;;;;;;11.29;36.77;99497.41;5084076;28;20044;-79
2024/03/03 02:45:07;;;;;;;6.00;3.70;;;;;;;11.28;36.93;99492.94;5091493;28;20105;-76
2024/03/03 02:47:35;;;;;;;4.78;2.92;;;;;;;11.27;36.98;99502.19;5116355;28;20126;-78
2024/03/03 02:50:04;;;;;;;4.30;2.80;;;;;;;11.29;36.84;99510.25;5097293;28;20035;-80
2024/03/03 02:52:32;;;;;;;6.20;3.63;;;;;;;11.29;36.99;99507.50;5086609;28;20036;-77
2024/03/03 02:55:00;;;;;;;5.60;3.03;;;;;;;11.29;36.93;99508.34;5100638;28;20113;-79
2024/03/03 02:57:29;;;;;;;6.47;3.50;;;;;;;11.31;37.10;99508.16;5090280;28;20485;-78
2024/03/03 02:59:57;;;;;;;5.03;3.30;;;;;;;11.27;37.05;99493.13;5090715;28;20065;-79
2024/03/03 03:02:25;;;;;;;5.40;3.45;;;;;;;11.30;37.17;99501.00;5094199;28;20044;-78
2024/03/03 03:04:54;;;;;;;5.78;3.30;;;;;;;11.30;37.26;99501.84;5088030;28;20483;-78
2024/03/03 03:07:22;;;;;;;4.68;3.10;;;;;;;11.31;37.01;99498.06;5098275;28;20049;-78
2024/03/03 03:09:50;;;;;;;5.55;3.30;;;;;;;11.29;37.03;99500.13;5090843;28;20047;-78
2024/03/03 03:12:18;;;;;;;5.57;3.63;;;;;;;11.29;37.33;99497.41;5112195;28;20527;-78
2024/03/03 03:14:48;;;;;;;6.55;3.45;;;;;;;11.27;37.30;99490.38;5094701;28;20040;-78
2024/03/03 03:17:16;;;;;;;6.90;3.63;;;;;;;11.24;37.00;99488.81;5102164;28;20044;-78
2024/03/03 03:19:45;;;;;;;6.05;3.75;;;;;;;11.24;36.86;99482.50;5093130;28;20051;-79
2024/03/03 03:22:14;;;;;;;7.38;3.95;;;;;;;11.22;36.93;99476.34;5085677;28;20040;-78
2024/03/03 03:24:42;;;;;;;5.65;3.58;;;;;;;11.20;37.59;99483.88;5082373;28;20055;-79
2024/03/03 03:27:10;;;;;;;5.45;4.00;;;;;;;11.18;37.31;99485.91;5107381;28;20039;-78
2024/03/03 03:29:38;;;;;;;5.40;3.63;;;;;;;11.17;37.23;99487.81;5094565;28;20086;-78
2024/03/03 03:32:08;;;;;;;7.20;4.10;;;;;;;11.17;37.46;99490.53;5081513;28;20044;-77
2024/03/03 03:34:36;;;;;;;5.90;3.90;;;;;;;11.14;37.70;99496.34;5077308;28;20048;-78
2024/03/03 03:37:04;;;;;;;5.75;3.75;;;;;;;11.14;37.53;99490.88;5103923;28;20127;-78
2024/03/03 03:39:33;;;;;;;6.32;3.90;;;;;;;11.13;37.80;99489.19;5094651;28;20499;-78
2024/03/03 03:42:01;;;;;;;6.63;4.00;;;;;;;11.13;37.36;99496.53;5106076;28;20032;-77
2024/03/03 03:44:30;;;;;;;6.88;4.43;;;;;;;11.12;37.71;99492.09;5087609;28;20330;-79
2024/03/03 03:46:58;;;;;;;7.35;3.72;;;;;;;11.11;37.55;99496.72;5108603;28;20048;-79
2024/03/03 03:49:28;;;;;;;5.95;4.13;;;;;;;11.11;37.55;99502.19;5095508;28;20039;-78
2024/03/03 03:51:58;;;;;;;6.30;4.15;;;;;;;11.09;37.59;99501.50;5086023;28;20052;-78
2024/03/03 03:54:26;;;;;;;7.07;4.18;;;;;;;11.08;37.78;99505.25;5085336;28;20485;-77
2024/03/03 03:56:54;;;;;;;5.88;3.97;;;;;;;11.09;37.36;99503.38;5085188;28;20105;-78
2024/03/03 03:59:21;;;;;;;6.28;3.75;;;;;;;11.08;37.90;99501.66;5085857;28;20031;-78
2024/03/03 04:01:49;;;;;;;6.25;3.88;;;;;;;11.08;37.83;99515.34;5102340;28;20093;-77
2024/03/03 04:04:18;;;;;;;6.28;4.03;;;;;;;11.06;37.96;99512.78;5107602;28;20044;-77
2024/03/03 04:06:47;;;;;;;7.18;4.40;;;;;;;11.07;37.90;99519.97;5094641;28;20055;-78
2024/03/03 04:09:16;;;;;;;6.28;3.80;;;;;;;11.04;37.69;99523.06;5082553;28;20067;-79
2024/03/03 04:11:44;;;;;;;7.97;4.60;;;;;;;11.05;37.98;99526.66;5104951;28;20054;-78
2024/03/03 04:14:12;;;;;;;7.40;4.70;;;;;;;11.05;38.17;99530.25;5089929;28;20040;-79
2024/03/03 04:16:40;;;;;;;6.45;4.40;;;;;;;11.05;38.00;99533.00;5085788;28;20054;-79
2024/03/03 04:19:08;;;;;;;7.63;4.70;;;;;;;11.05;38.09;99538.47;5103679;28;20123;-79
2024/03/03 04:21:41;;;;;;;6.40;4.13;;;;;;;11.07;38.57;99539.13;5087803;28;20046;-79
2024/03/03 04:24:11;;;;;;;7.03;4.72;;;;;;;11.05;37.86;99534.88;5086677;28;20131;-79
2024/03/03 04:26:39;;;;;;;6.75;4.40;;;;;;;11.03;37.89;99543.25;5086306;28;20134;-79
2024/03/03 04:29:07;;;;;;;7.28;4.40;;;;;;;11.04;38.34;99552.31;5101409;28;20059;-78
2024/03/03 04:31:42;;;;;;;7.20;4.53;;;;;;;11.05;38.57;99554.03;5088369;28;20040;-79
2024/03/03 04:34:10;;;;;;;7.07;4.45;;;;;;;11.01;38.49;99548.03;5094595;28;20056;-78
2024/03/03 04:36:38;;;;;;;8.55;4.78;;;;;;;11.01;38.06;99550.78;5080405;28;20043;-79
2024/03/03 04:39:07;;;;;;;6.88;4.28;;;;;;;11.02;37.90;99557.09;5086409;28;20102;-79
2024/03/03 04:41:36;;;;;;;7.90;4.90;;;;;;;11.03;38.20;99556.94;5097254;28;20109;-78
2024/03/03 04:44:05;;;;;;;8.77;4.72;;;;;;;11.02;38.14;99557.97;5090568;28;20047;-78
2024/03/03 04:46:33;;;;;;;8.27;4.85;;;;;;;11.02;38.59;99562.56;5100088;28;20515;-78
2024/03/03 04:49:01;;;;;;;7.35;4.82;;;;;;;10.99;38.23;99564.63;5099875;28;20043;-78
2024/03/03 04:51:30;;;;;;;7.80;5.15;;;;;;;11.00;38.54;99557.25;5089807;28;20114;-78
2024/03/03 04:53:58;;;;;;;7.95;5.13;;;;;;;11.01;38.21;99569.94;5086243;28;20057;-78
2024/03/03 04:56:27;;;;;;;6.85;4.68;;;;;;;11.00;38.48;99570.97;5090733;28;20036;-78
2024/03/03 04:58:57;;;;;;;8.10;5.35;;;;;;;11.01;38.19;99569.94;5085167;28;20127;-79
2024/03/03 05:01:26;;;;;;;7.80;5.32;;;;;;;10.99;38.75;99578.31;5087805;28;20056;-79
2024/03/03 05:03:54;;;;;;;7.57;4.78;;;;;;;11.01;38.40;99571.81;5103417;28;20512;-79
2024/03/03 05:06:22;;;;;;;8.13;5.00;;;;;;;11.01;38.67;99571.81;5091916;28;21668;-78
2024/03/03 05:08:50;;;;;;;8.55;5.00;;;;;;;11.02;38.75;99568.06;5102201;28;20040;-79
2024/03/03 05:11:18;;;;;;;8.00;5.07;;;;;;;11.02;38.46;99557.09;5088184;28;20708;-77
2024/03/03 05:13:46;;;;;;;8.27;4.90;;;;;;;11.02;38.74;99547.00;5082729;28;20040;-78
2024/03/03 05:16:15;;;;;;;9.60;5.20;;;;;;;11.04;38.49;99549.59;5087607;28;20097;-79
2024/03/03 05:18:44;;;;;;;8.90;5.20;;;;;;;11.02;38.32;99559.84;5090681;28;20671;-78
2024/03/03 05:21:13;;;;;;;8.25;5.30;;;;;;;11.02;38.48;99557.97;5098978;28;20050;-78
2024/03/03 05:23:41;;;;;;;8.77;5.07;;;;;;;11.02;38.83;99562.56;5081969;28;20074;-78
2024/03/03 05:26:09;;;;;;;9.13;5.43;;;;;;;11.01;38.61;99563.59;5082063;28;20070;-78
2024/03/03 05:28:37;;;;;;;9.57;5.00;;;;;;;11.01;38.76;99563.59;5085099;28;20135;-79
2024/03/03 05:31:05;;;;;;;10.48;5.80;;;;;;;11.00;38.67;99570.97;5085407;28;20051;-79
2024/03/03 05:33:35;;;;;;;8.80;5.68;;;;;;;11.01;38.86;99580.88;5078056;28;20108;-78
2024/03/03 05:36:04;;;;;;;7.45;4.90;;;;;;;10.98;38.82;99575.72;5087004;28;20054;-77
2024/03/03 05:38:32;;;;;;;8.10;4.93;;;;;;;10.97;38.76;99582.25;5086511;28;20047;-78
2024/03/03 05:41:00;;;;;;;7.38;5.05;;;;;;;10.96;38.80;99577.81;5101881;28;20040;-78
2024/03/03 05:43:28;;;;;;;8.75;6.00;;;;;;;10.95;38.88;99573.34;5101453;28;20113;-78
2024/03/03 05:45:56;;;;;;;8.05;5.20;;;;;;;10.95;38.77;99584.31;5082749;28;20032;-78
2024/03/03 05:48:24;;;;;;;7.57;5.05;;;;;;;10.93;38.72;99587.19;5090967;28;20051;-78
2024/03/03 05:50:54;;;;;;;8.00;5.40;;;;;;;10.93;39.19;99589.94;5105220;28;20032;-79
2024/03/03 05:53:22;;;;;;;9.18;5.40;;;;;;;10.92;39.27;99590.97;5108997;28;20044;-79
2024/03/03 05:55:50;;;;;;;7.82;5.18;;;;;;;10.90;38.95;99597.63;5085720;28;20044;-79
2024/03/03 05:58:18;;;;;;;8.65;5.53;;;;;;;10.91;39.06;99604.81;5108368;28;20067;-79
2024/03/03 06:00:47;;;;;;;8.70;5.32;;;;;;;10.91;39.34;99599.34;5093969;28;20060;-79
2024/03/03 06:03:15;;;;;;;8.38;4.85;;;;;;;10.88;39.09;99600.53;5088565;28;20143;-78
2024/03/03 06:05:43;;;;;;;8.30;5.05;;;;;;;10.92;39.01;99604.66;5100346;28;20044;-78
2024/03/03 06:08:13;;;;;;;8.57;5.43;;;;;;;10.94;39.23;99601.75;5075793;28;20040;-78
2024/03/03 06:10:41;;;;;;;10.05;5.60;;;;;;;10.92;39.20;99603.78;5090264;28;20511;-78
2024/03/03 06:13:09;;;;;;;9.30;5.72;;;;;;;10.93;39.07;99608.25;5089796;28;20044;-78
2024/03/03 06:15:39;;;;;;;9.30;5.63;;;;;;;10.93;39.53;99597.28;5086458;28;20043;-73
2024/03/03 06:18:07;;;;;;;8.48;5.47;;;;;;;10.90;39.45;99589.41;5088066;28;20052;-78
2024/03/03 06:20:35;;;;;;;8.55;5.22;;;;;;;10.89;39.34;99594.06;5081761;28;20376;-77
2024/03/03 06:23:04;;;;;;;9.98;5.60;;;;;;;10.88;39.41;99586.88;5094027;28;20044;-79
2024/03/03 06:25:33;;;;;;;9.15;5.90;;;;;;;10.89;39.36;99584.97;5099836;28;20074;-78
2024/03/03 06:28:01;;;;;;;8.85;5.88;;;;;;;10.86;38.95;99580.69;5094983;28;20044;-78
2024/03/03 06:30:29;;;;;;;8.80;5.50;;;;;;;10.86;39.28;99580.69;5089507;28;20113;-79
2024/03/03 06:32:57;;;;;;;10.15;5.95;;;;;;;10.85;38.95;99578.13;5114472;28;20052;-78
2024/03/03 06:35:25;;;;;;;8.95;5.50;;;;;;;10.86;39.29;99574.34;5098046;28;20051;-78
2024/03/03 06:37:54;;;;;;;8.23;5.60;;;;;;;10.84;39.44;99569.03;5099893;28;20065;-78
2024/03/03 06:40:22;;;;;;;8.15;5.82;;;;;;;10.83;39.37;99569.22;5101210;28;20071;-78
2024/03/03 06:42:51;;;;;;;7.65;5.35;;;;;;;10.84;39.28;99574.50;5099750;28;20413;-78
2024/03/03 06:45:19;;;;;;;8.77;5.82;;;;;;;10.83;39.35;99574.69;5090282;28;20457;-78
2024/03/03 06:47:47;;;;;;;10.13;6.03;;;;;;;10.81;39.14;99563.91;5099984;28;20081;-78
2024/03/03 06:50:15;;;;;;;10.95;7.15;;;;;;;10.80;39.39;99573.16;5082782;28;20048;-78
2024/03/03 06:52:43;;;;;;;9.00;5.88;;;;;;;10.81;39.21;99563.91;5093806;28;20044;-78
2024/03/03 06:55:11;;;;;;;8.98;6.07;;;;;;;10.81;39.40;99572.09;5087391;28;20117;-77
2024/03/03 06:57:39;;;;;;;10.60;5.93;;;;;;;10.80;39.08;99555.88;5092583;28;20062;-78
2024/03/03 07:00:10;;;;;;;9.20;5.53;;;;;;;10.81;39.40;99558.41;5109472;28;20040;-78
2024/03/03 07:05:22;;;;;;;9.15;5.70;;;;;;;10.79;39.61;99570.59;5091795;28;20119;-78
2024/03/03 07:07:50;;;;;;;7.88;5.22;;;;;;;10.80;39.70;99566.81;5099396;28;20077;-78
2024/03/03 07:10:19;;;;;;;9.57;5.97;;;;;;;10.81;39.26;99571.28;5095945;28;20433;-78
2024/03/03 07:12:47;;;;;;;8.88;5.75;;;;;;;10.80;39.71;99572.31;5093562;28;20059;-77
2024/03/03 07:15:17;;;;;;;8.95;5.95;;;;;;;10.81;39.36;99579.50;5089436;28;20430;-78
2024/03/03 07:17:46;;;;;;;9.65;5.90;;;;;;;10.80;39.37;99585.97;5115259;28;20051;-77
2024/03/03 07:20:14;;;;;;;9.48;5.75;;;;;;;10.80;39.53;99583.25;5089555;28;20066;-78
2024/03/03 07:22:42;;;;;;;9.38;6.07;;;;;;;10.82;39.67;99589.38;5097214;28;20050;-78
2024/03/03 07:25:10;;;;;;;9.55;5.97;;;;;;;10.79;39.87;99582.38;5104497;28;20555;-78
2024/03/03 07:27:38;;;;;;;8.75;5.90;;;;;;;10.81;39.57;99594.00;5094927;28;20040;-77
2024/03/03 07:30:07;;;;;;;8.48;5.50;;;;;;;10.83;39.85;99602.03;5093380;28;20344;-77
2024/03/03 07:32:38;;;;;;;7.18;4.90;;;;;;;10.84;40.05;99601.03;5091041;28;20120;-77
2024/03/03 07:35:07;;;;;;;8.27;5.00;;;;;;;10.85;39.94;99602.75;5090916;28;20055;-78
2024/03/03 07:37:35;;;;;;;7.80;4.82;;;;;;;10.87;39.73;99611.66;5110340;28;20048;-79
2024/03/03 07:40:09;;;;;;;9.98;5.80;;;;;;;10.91;39.74;99623.97;5090377;28;20519;-78
2024/03/03 07:42:37;;;;;;;7.72;5.22;;;;;;;10.89;40.20;99626.91;5087442;28;20052;-77
2024/03/03 07:45:06;;;;;;;8.15;5.53;;;;;;;10.95;40.05;99636.31;5087202;28;20078;-77
2024/03/03 07:47:34;;;;;;;8.18;5.30;;;;;;;10.96;40.21;99621.59;5104753;28;20048;-77
2024/03/03 07:50:05;;;;;;;8.20;5.47;;;;;;;11.01;39.86;99623.84;5107467;28;20402;-77
2024/03/03 07:52:33;;;;;;;8.70;5.55;;;;;;;11.02;40.22;99620.06;5088653;28;20064;-78
2024/03/03 07:55:02;;;;;;;8.65;5.47;;;;;;;11.04;40.28;99624.38;5084829;28;20394;-77
2024/03/03 07:57:30;;;;;;;8.90;5.68;;;;;;;11.06;40.36;99616.81;5074451;28;20403;-77
2024/03/03 07:59:58;;;;;;;8.30;5.50;;;;;;;11.09;39.92;99613.75;5106421;28;20048;-77
2024/03/03 08:02:26;;;;;;;9.10;5.90;;;;;;;11.10;40.12;99607.25;5106781;28;20548;-77
2024/03/03 08:04:56;;;;;;;10.43;6.45;;;;;;;11.13;40.02;99611.56;5079589;28;20515;-77
2024/03/03 08:07:25;;;;;;;9.07;5.35;;;;;;;11.16;40.35;99620.25;5090100;28;20506;-78
2024/03/03 08:09:53;;;;;;;8.15;5.32;;;;;;;11.17;40.08;99630.19;5091875;28;20047;-78
2024/03/03 08:12:23;;;;;;;8.95;5.45;;;;;;;11.19;40.30;99630.03;5083627;28;20047;-77
2024/03/03 08:14:51;;;;;;;8.30;5.40;;;;;;;11.22;40.11;99638.78;5101105;28;20092;-77
2024/03/03 08:17:19;;;;;;;10.13;6.03;;;;;;;11.25;40.28;99632.09;5089525;28;20043;-77
2024/03/03 08:19:47;;;;;;;9.30;5.75;;;;;;;11.27;40.42;99635.53;5090191;28;20054;-78
2024/03/03 08:22:14;;;;;;;9.70;6.07;;;;;;;11.31;40.06;99650.59;5087208;28;20046;-73
2024/03/03 08:24:44;;;;;;;8.38;6.00;;;;;;;11.34;40.29;99656.59;5086715;28;20048;-78
2024/03/03 08:27:12;;;;;;;8.55;5.93;;;;;;;11.35;40.11;99652.84;5107373;28;20100;-78
2024/03/03 08:29:40;;;;;;;9.07;6.13;;;;;;;11.39;40.30;99653.34;5088814;28;20077;-78
2024/03/03 08:32:08;;;;;;;9.63;5.68;;;;;;;11.41;40.26;99653.19;5109905;28;20520;-77
2024/03/03 08:34:36;;;;;;;8.98;5.60;;;;;;;11.44;40.47;99655.59;5112105;28;20126;-78
2024/03/03 08:37:03;;;;;;;10.18;6.30;;;;;;;11.47;40.50;99652.53;5112878;28;20052;-78
2024/03/03 08:39:31;;;;;;;9.55;6.13;;;;;;;11.51;40.23;99651.13;5079442;28;20032;-78
2024/03/03 08:42:00;;;;;;;9.10;6.30;;;;;;;11.56;40.28;99651.47;5091098;28;20040;-78
2024/03/03 08:44:31;;;;;;;8.57;5.40;;;;;;;11.57;39.98;99650.44;5093453;28;20184;-78
2024/03/03 08:46:59;;;;;;;10.13;5.75;;;;;;;11.60;39.89;99653.72;5088931;28;20473;-77
2024/03/03 08:49:27;;;;;;;10.00;6.68;;;;;;;11.63;39.76;99652.56;5082961;28;20043;-79
2024/03/03 08:51:55;;;;;;;8.35;5.57;;;;;;;11.65;39.86;99654.09;5105917;28;20036;-78
2024/03/03 08:54:23;;;;;;;10.02;6.85;;;;;;;11.68;40.28;99655.63;5092707;28;20398;-78
2024/03/03 08:56:51;;;;;;;8.48;5.47;;;;;;;11.71;40.12;99647.09;5104882;28;20105;-78
2024/03/03 08:59:20;;;;;;;8.88;5.68;;;;;;;11.76;40.34;99647.41;5093605;28;20143;-78
2024/03/03 09:01:48;;;;;;;9.98;6.43;;;;;;;11.78;39.87;99648.13;5090864;28;20506;-78
2024/03/03 09:04:17;;;;;;;8.88;6.35;;;;;;;11.83;39.91;99647.59;5091573;28;20061;-78
2024/03/03 09:06:45;;;;;;;9.00;6.05;;;;;;;11.88;39.76;99650.69;5091889;28;20040;-78
2024/03/03 09:09:16;;;;;;;8.63;5.95;;;;;;;11.92;39.81;99647.41;5092296;28;20326;-78
2024/03/03 09:11:44;;;;;;;9.73;6.22;;;;;;;11.95;39.95;99654.44;5082883;28;20064;-78
2024/03/03 09:14:13;;;;;;;9.52;6.22;;;;;;;11.98;39.45;99648.59;5092333;28;20113;-78
2024/03/03 09:16:42;;;;;;;7.57;5.78;;;;;;;12.02;39.77;99645.34;5105327;28;20043;-78
2024/03/03 09:19:10;;;;;;;11.05;6.22;;;;;;;12.03;39.56;99641.59;5092335;28;20439;-77
2024/03/03 09:21:40;;;;;;;10.15;6.50;;;;;;;12.05;39.77;99642.25;5085712;28;20131;-77
2024/03/03 09:24:08;;;;;;;8.93;5.95;;;;;;;12.08;39.49;99644.66;5099881;28;20050;-79
2024/03/03 09:26:36;;;;;;;7.93;5.53;;;;;;;12.09;39.53;99640.88;5107377;28;20066;-78
2024/03/03 09:29:03;;;;;;;9.50;6.15;;;;;;;12.10;39.67;99637.13;5091487;28;20106;-78
2024/03/03 09:31:31;;;;;;;9.20;5.72;;;;;;;12.13;39.54;99641.38;5089966;28;20116;-78
2024/03/03 09:34:00;;;;;;;8.60;6.18;;;;;;;12.18;39.29;99646.34;5111168;28;20044;-78
2024/03/03 09:36:28;;;;;;;8.60;5.35;;;;;;;12.18;39.36;99643.59;5107212;28;20048;-78
2024/03/03 09:38:56;;;;;;;10.55;6.03;;;;;;;12.23;39.42;99646.66;5107864;28;20039;-78
2024/03/03 09:41:25;;;;;;;9.40;6.32;;;;;;;12.25;39.19;99650.09;5108640;28;20108;-78
2024/03/03 09:43:59;;;;;;;9.52;6.32;;;;;;;12.31;39.22;99657.63;5091532;28;20036;-77
2024/03/03 09:46:29;;;;;;;8.95;5.88;;;;;;;12.32;39.30;99654.72;5109225;28;20058;-78
2024/03/03 09:48:57;;;;;;;8.93;6.45;;;;;;;12.37;39.24;99659.69;5093000;28;20351;-78
2024/03/03 09:51:28;;;;;;;7.90;5.68;;;;;;;12.42;39.43;99657.28;5099503;28;20038;-78
2024/03/03 09:53:58;;;;;;;8.95;5.90;;;;;;;12.48;39.40;99645.59;5089620;28;20477;-78
2024/03/03 09:56:27;;;;;;;11.00;6.75;;;;;;;12.54;39.45;99646.78;5109084;28;20046;-78
2024/03/03 09:58:54;;;;;;;9.88;6.50;;;;;;;12.59;39.94;99642.47;5091148;28;20097;-78
2024/03/03 10:01:23;;;;;;;8.57;5.97;;;;;;;12.66;39.38;99638.00;5108319;28;20043;-78
2024/03/03 10:03:52;;;;;;;9.73;6.18;;;;;;;12.73;39.49;99630.78;5090150;28;20127;-78
2024/03/03 10:06:22;;;;;;;9.48;6.50;;;;;;;12.82;39.63;99628.84;5109205;28;20093;-78
2024/03/03 10:08:56;;;;;;;12.02;6.40;;;;;;;12.91;38.99;99629.66;5091748;28;20143;-77
2024/03/03 10:11:25;;;;;;;9.60;6.28;;;;;;;12.97;39.38;99627.03;5078694;28;20039;-80
2024/03/03 10:13:53;;;;;;;8.98;6.18;;;;;;;13.04;39.37;99625.28;5102220;28;20403;-78
2024/03/03 10:16:21;;;;;;;8.60;6.28;;;;;;;13.11;39.15;99625.44;5085636;28;20036;-79
2024/03/03 10:18:59;;;;;;;8.98;6.10;;;;;;;13.23;38.65;99623.97;5110827;28;20213;-77
2024/03/03 10:21:33;;;;;;;9.02;5.65;;;;;;;13.28;39.07;99617.97;5088271;28;20054;-78
2024/03/03 10:24:30;;;;;;;8.10;5.80;;;;;;;13.32;38.29;99611.03;5103173;28;20040;-77
2024/03/03 10:27:00;;;;;;;9.07;6.18;;;;;;;13.41;38.62;99608.06;5057036;28;20522;-75
2024/03/03 10:29:29;;;;;;;10.65;6.20;;;;;;;13.49;39.05;99601.66;5093563;28;20062;-77
2024/03/03 10:32:08;;;;;;;8.63;6.22;;;;;;;13.58;38.34;99609.69;5093013;28;20415;-77
2024/03/03 10:34:37;;;;;;;8.52;5.82;;;;;;;13.64;38.95;99605.31;5088648;28;20063;-77
2024/03/03 10:37:04;;;;;;;8.82;5.65;;;;;;;13.74;38.55;99616.94;5108572;28;20054;-77
2024/03/03 10:39:35;;;;;;;8.80;5.95;;;;;;;13.83;38.61;99601.22;5112507;28;20499;-77
2024/03/03 10:42:08;;;;;;;8.73;6.03;;;;;;;13.92;38.34;99600.09;5106855;28;20032;-77
2024/03/03 10:44:36;;;;;;;8.43;5.43;;;;;;;13.98;38.55;99591.94;5106930;28;20154;-76
2024/03/03 10:47:08;;;;;;;8.65;5.68;;;;;;;14.10;38.67;99597.88;5088085;28;20067;-77
2024/03/03 10:49:35;;;;;;;9.88;5.88;;;;;;;14.20;38.88;99583.81;5111175;28;20534;-77
2024/03/03 10:52:04;;;;;;;7.70;5.75;;;;;;;14.28;38.61;99578.22;5090873;28;20071;-77
2024/03/03 10:54:34;;;;;;;9.15;5.93;;;;;;;14.37;38.10;99574.31;5093229;28;20134;-77
2024/03/03 10:57:03;;;;;;;8.60;5.53;;;;;;;14.48;37.89;99567.53;5091987;28;20111;-77
2024/03/03 10:59:32;;;;;;;8.15;5.35;;;;;;;14.57;37.85;99574.63;5096383;28;20051;-78
2024/03/03 11:02:01;;;;;;;7.53;5.15;;;;;;;14.67;38.17;99575.22;5097867;28;20036;-79
2024/03/03 11:04:32;;;;;;;8.27;5.40;;;;;;;14.75;38.18;99561.31;5101822;28;20131;-78
2024/03/03 11:07:04;;;;;;;9.15;5.85;;;;;;;14.83;37.22;99563.13;5112481;28;20044;-79
2024/03/03 11:09:32;;;;;;;8.43;5.45;;;;;;;14.86;37.30;99558.06;5114236;28;20064;-79
2024/03/03 11:12:05;;;;;;;8.93;5.75;;;;;;;14.98;36.63;99550.16;5098604;28;20082;-79
2024/03/03 11:14:40;;;;;;;8.32;5.53;;;;;;;15.03;37.03;99550.41;5097033;28;20062;-79
2024/03/03 11:17:12;;;;;;;7.13;5.15;;;;;;;15.09;36.90;99561.50;5122261;28;20059;-79
2024/03/03 11:19:45;;;;;;;8.35;5.20;;;;;;;15.15;37.02;99554.38;5102791;28;20111;-80
2024/03/03 11:22:18;;;;;;;7.30;5.00;;;;;;;15.21;36.51;99561.00;5122511;28;20050;-79
2024/03/03 11:24:54;;;;;;;6.40;5.03;;;;;;;15.28;35.98;99561.91;5096901;28;20054;-80
2024/03/03 11:27:26;;;;;;;7.45;5.38;;;;;;;15.30;36.47;99555.16;5117379;28;20078;-81
2024/03/03 11:29:54;;;;;;;7.20;4.93;;;;;;;15.32;36.69;99558.59;5092891;28;20067;-80
2024/03/03 11:32:25;;;;;;;6.57;5.00;;;;;;;15.39;35.94;99559.53;5168616;22;20473;-75
2024/03/03 11:34:55;;;;;;;8.18;4.57;;;;;;;15.40;35.95;99554.88;5063326;28;20040;-76
2024/03/03 11:37:24;;;;;;;8.52;5.03;;;;;;;15.42;36.17;99547.25;5067689;28;20247;-75
2024/03/03 11:39:56;;;;;;;7.95;5.15;;;;;;;15.45;35.40;99542.19;5044356;28;20045;-75
2024/03/03 11:42:38;;;;;;;7.97;4.95;;;;;;;15.45;35.28;99536.69;5050250;28;20040;-77
2024/03/03 11:45:09;;;;;;;6.50;4.18;;;;;;;15.45;35.81;99535.81;5045269;28;20416;-77